aviador You're here:

KWST Decoded Metar

WESTERLY in RI, USA
Report Time2018-02-25 23:16:00
UTC Time2018-02-25 23:49:58
Flight Rules vfr VFR
Wind360° at 08 kt
W.Decomp.*RWY 32: 4.6 kt HW 6.6 kt RCW
RWY 07: 4.6 kt HW 6.6 kt LCW
Visibility9999 m
Phenomena:N/A
Clouds:Scattered 008 Hf
CeilingNone
Temp06°C (ISA -9)
Dew Point06°C (100% RH)
AAT2.2°C
QNH1014 hPa
Density Alt-909 ft
Elevation69 ft
Report Wrong Elevation
Raw Report
KWST 252316Z AUTO 36008KT 10SM SCT008 06/06 A2993 RMK AO2
T00610056=

Extra information for KWST:More info

Metar Taf Metar & Taf Last 4 Metars F.Rules Stats Wind Profile Meteogram Temp Stats Airport Information Weather charts Add Link Nearby VenuesMetar ALERT Operation Metar Decoded Social comments

AIRNAV info for KWST